»·PEaware :: N269WW L88-KSBP

N269WW :: L88-KSBP

FLIGHT INFORMATION

Flight Status: Arrived
Operator: Privately registered:
United States
More flights under this callsign
Pilot: Keenan B. (28722)
Aircraft: CSA SportCruiser
(CRUZ)
More flights by this aircraft type
Origin: L88 New Cuyama
United States
Destination: KSBP San Luis Co Regl
United States
More flights between these airports :: More routes between these airports
Route: DIRECT
File this flight plan on PilotEdge
Remarks:
Altitude:
(Current/Filed)
6,500ft
Speed:
(Current/Filed)
90kts
Departed: 04-Apr-20 04:24 PM
Arrived: 04-Apr-20 04:57 PM
Distance/Time
Traveled:
50nm/0:33
Distance/Time
To Go:
Arrived

Flight Plot

Page will automatically refresh every two minutes.


Map Options




Map Legend


Flown Route
Filed Route
Departure Airport
Arrival Airport
Navaid (VOR, NDB)
Fix

Horizontal Profiles

Position Reports

Time Latitude Longitude Heading Altitude Ground
Speed
04-Apr-20 16:18 34.942855 -119.690286 204 2156ft 0kts
04-Apr-20 16:20 34.942799 -119.690367 241 2156ft 5kts
04-Apr-20 16:21 34.940987 -119.688115 113 2164ft 16kts
04-Apr-20 16:22 34.938279 -119.681450 113 2193ft 25kts
04-Apr-20 16:23 34.938138 -119.681214 296 2194ft 29kts
04-Apr-20 16:24 34.948139 -119.700837 304 2953ft 75kts
04-Apr-20 16:25 34.959813 -119.722152 292 3967ft 76kts
04-Apr-20 16:26 34.970551 -119.744153 299 4933ft 76kts
04-Apr-20 16:27 34.979200 -119.767097 290 5860ft 75kts
04-Apr-20 16:28 34.984015 -119.792045 278 6629ft 87kts
04-Apr-20 16:29 34.986992 -119.821052 281 6797ft 90kts
04-Apr-20 16:30 34.993497 -119.853653 286 6769ft 107kts
04-Apr-20 16:31 35.001488 -119.890129 283 6703ft 109kts
04-Apr-20 16:32 35.010546 -119.925815 282 6608ft 109kts
04-Apr-20 16:33 35.017831 -119.961797 283 6389ft 106kts
04-Apr-20 16:34 35.026994 -119.993746 291 6429ft 101kts
04-Apr-20 16:35 35.038771 -120.025406 291 6613ft 103kts
04-Apr-20 16:36 35.050412 -120.058219 290 6718ft 107kts
04-Apr-20 16:37 35.065103 -120.091492 295 6560ft 117kts
04-Apr-20 16:38 35.077555 -120.125395 288 6525ft 110kts
04-Apr-20 16:39 35.087442 -120.160660 282 6514ft 110kts
04-Apr-20 16:40 35.097438 -120.193506 289 6680ft 100kts
04-Apr-20 16:41 35.109405 -120.224065 294 6773ft 100kts
04-Apr-20 16:41 35.119773 -120.249085 289 6990ft 102kts
04-Apr-20 16:42 35.130004 -120.286241 283 6268ft 122kts
04-Apr-20 16:44 35.139939 -120.328863 286 4658ft 119kts
04-Apr-20 16:44 35.145409 -120.358590 279 3582ft 98kts
04-Apr-20 16:45 35.147663 -120.391484 276 3042ft 96kts
04-Apr-20 16:46 35.155494 -120.421017 290 3182ft 92kts
04-Apr-20 16:48 35.169549 -120.451338 306 3721ft 84kts
04-Apr-20 16:48 35.183046 -120.470282 300 3969ft 89kts
04-Apr-20 16:49 35.196710 -120.495571 295 3769ft 91kts
04-Apr-20 16:50 35.205199 -120.524284 293 3479ft 93kts
04-Apr-20 16:51 35.216826 -120.553074 291 2603ft 87kts
04-Apr-20 16:52 35.226804 -120.579117 297 1769ft 83kts
04-Apr-20 16:53 35.235855 -120.602402 312 1384ft 75kts
04-Apr-20 16:54 35.226890 -120.621478 288 727ft 52kts
04-Apr-20 16:55 35.233832 -120.634639 305 225ft 46kts
04-Apr-20 16:56 35.237560 -120.639909 10 215ft 0kts
04-Apr-20 16:57 35.237560 -120.639909 10 215ft 0kts
04-Apr-20 16:58 35.237560 -120.639909 10 215ft 0kts
04-Apr-20 16:59 35.237560 -120.639909 10 215ft 0kts
04-Apr-20 17:00 35.237560 -120.639909 10 215ft 0kts
04-Apr-20 17:01 35.237560 -120.639909 10 215ft 0kts
04-Apr-20 17:02 35.237560 -120.639909 10 215ft 0kts
04-Apr-20 17:03 35.237560 -120.639909 10 215ft 0kts
04-Apr-20 17:04 35.237560 -120.639909 10 215ft 0kts
04-Apr-20 17:05 35.237560 -120.639909 10 215ft 0kts
04-Apr-20 17:06 35.237560 -120.639909 10 215ft 0kts
04-Apr-20 17:07 35.237560 -120.639909 10 215ft 0kts
04-Apr-20 17:08 35.237560 -120.639909 10 215ft 0kts
04-Apr-20 17:09 35.237560 -120.639909 10 215ft 0kts
04-Apr-20 17:10 35.237560 -120.639909 10 215ft 0kts

Navigation Log

Ident Type
Flight plan parsing failed, navigation log unavailable